createdAt,value
2022-11-30T00:11:47.761Z,7.6
2022-11-30T00:31:49.771Z,7.6
2022-11-30T00:41:50.674Z,7.6
2022-11-30T01:01:51.397Z,7.6
2022-11-30T01:11:51.912Z,7.6
2022-11-30T01:21:52.198Z,7.6
2022-11-30T01:31:53.208Z,7.6
2022-11-30T01:41:53.505Z,7.6
2022-11-30T01:51:53.650Z,7.2
2022-11-30T02:01:54.670Z,7.1
2022-11-30T02:21:56.144Z,6.7
2022-11-30T02:31:56.289Z,6.6
2022-11-30T02:41:56.929Z,6.4
2022-11-30T02:51:57.223Z,6.4
2022-11-30T03:01:58.057Z,6.3
2022-11-30T03:11:58.320Z,6.2
2022-11-30T03:21:58.831Z,6.2
2022-11-30T03:31:59.762Z,6.1
2022-11-30T03:41:59.921Z,5.9
2022-11-30T03:52:00.235Z,6
2022-11-30T04:02:00.442Z,6.1
2022-11-30T04:12:00.467Z,6
2022-11-30T04:22:01.253Z,6
2022-11-30T04:32:01.840Z,6.1
2022-11-30T04:42:02.531Z,6
2022-11-30T04:52:03.439Z,6
2022-11-30T05:02:04.447Z,6
2022-11-30T05:12:04.897Z,6.1
2022-11-30T05:22:05.348Z,6.1
2022-11-30T05:32:06.180Z,6.1
2022-11-30T05:42:06.653Z,6.1
2022-11-30T05:44:45.257Z,6.1
2022-11-30T06:02:16.204Z,6.2
2022-11-30T06:12:16.535Z,6.3
2022-11-30T06:22:17.061Z,6.2
2022-11-30T06:32:17.343Z,6.3
2022-11-30T06:42:17.810Z,6.3
2022-11-30T06:52:18.479Z,6.3
2022-11-30T07:02:19.144Z,6.4
2022-11-30T07:12:19.795Z,6.3
2022-11-30T07:22:20.154Z,6.4
2022-11-30T07:32:20.305Z,6.4
2022-11-30T07:42:20.617Z,6.4
2022-11-30T07:52:21.639Z,6.4
2022-11-30T08:02:22.006Z,6.5
2022-11-30T08:12:22.119Z,6.4
2022-11-30T08:22:22.948Z,6.4
2022-11-30T08:32:23.166Z,6.5
2022-11-30T08:42:23.442Z,6.5
2022-11-30T08:52:23.944Z,6.5
2022-11-30T09:02:24.429Z,6.5
2022-11-30T09:12:25.037Z,6.5
2022-11-30T09:22:25.306Z,6.5
2022-11-30T09:32:25.649Z,6.4
2022-11-30T09:42:26.031Z,6.5
2022-11-30T09:52:26.920Z,6.5
2022-11-30T10:02:27.105Z,6.6
2022-11-30T10:12:28.008Z,6.5
2022-11-30T10:22:28.945Z,6.6
2022-11-30T10:32:29.145Z,6.6
2022-11-30T10:42:29.991Z,6.6
2022-11-30T10:52:30.255Z,6.6
2022-11-30T11:02:30.828Z,6.5
2022-11-30T11:12:31.032Z,6.4
2022-11-30T11:22:31.855Z,6.4
2022-11-30T11:32:32.528Z,6.4
2022-11-30T11:42:33.537Z,6.4
2022-11-30T12:02:34.752Z,6.3
2022-11-30T12:12:35.414Z,6.2
2022-11-30T12:22:35.973Z,6.3
2022-11-30T12:32:36.469Z,6.3
2022-11-30T12:42:36.879Z,6.1
2022-11-30T12:52:37.073Z,6.2
2022-11-30T13:02:37.463Z,6.2
2022-11-30T13:12:38.447Z,6.2
2022-11-30T13:22:38.965Z,6.2
2022-11-30T13:32:57.146Z,6.1
2022-11-30T13:42:40.120Z,6.1
2022-11-30T13:52:40.607Z,6.2
2022-11-30T14:02:41.281Z,6.1
2022-11-30T14:12:42.142Z,6.1
2022-11-30T14:22:42.867Z,6.1
2022-11-30T14:32:43.437Z,6.1
2022-11-30T14:42:43.956Z,6
2022-11-30T14:52:44.688Z,6
2022-11-30T15:02:45.005Z,5.9
2022-11-30T15:12:45.234Z,6
2022-11-30T15:32:46.817Z,5.9
2022-11-30T15:42:47.030Z,5.9
2022-11-30T15:52:47.706Z,5.9
2022-11-30T16:02:48.264Z,5.9
2022-11-30T16:12:48.962Z,5.8
2022-11-30T16:22:49.727Z,5.8
2022-11-30T16:32:50.784Z,5.8
2022-11-30T16:42:51.299Z,5.8
2022-11-30T16:52:51.815Z,5.8
2022-11-30T17:02:52.716Z,5.7
2022-11-30T17:12:53.541Z,5.7
2022-11-30T17:22:53.906Z,5.6
2022-11-30T17:32:54.691Z,5.6
2022-11-30T17:42:55.393Z,5.5
2022-11-30T17:52:56.227Z,5.4
2022-11-30T18:02:56.613Z,5.4
2022-11-30T18:12:56.948Z,5.4
2022-11-30T18:22:57.709Z,5.4
2022-11-30T18:32:58.400Z,5.3
2022-11-30T18:42:58.590Z,5.3
2022-11-30T18:52:58.905Z,5.3
2022-11-30T19:02:59.710Z,5.3
2022-11-30T19:12:59.995Z,5.3
2022-11-30T19:23:00.134Z,5.3
2022-11-30T19:33:00.414Z,5.3
2022-11-30T19:43:01.493Z,5.4
2022-11-30T19:53:01.992Z,5.3
2022-11-30T20:03:02.343Z,5.3
2022-11-30T20:13:02.395Z,5.3
2022-11-30T20:23:03.001Z,5.3
2022-11-30T20:33:03.213Z,5.3
2022-11-30T20:43:03.756Z,5.2
2022-11-30T20:53:04.132Z,5.2
2022-11-30T21:03:04.654Z,5.2
2022-11-30T21:13:04.772Z,5.2
2022-11-30T21:23:05.014Z,5.2
2022-11-30T21:33:06.087Z,5.3
2022-11-30T21:43:07.072Z,5.2
2022-11-30T21:53:07.386Z,5.2
2022-11-30T22:03:08.480Z,5.2
2022-11-30T22:13:09.102Z,5.2
2022-11-30T22:23:10.107Z,5.2
2022-11-30T22:33:11.024Z,5.2
2022-11-30T22:43:11.407Z,5.2
2022-11-30T22:53:12.404Z,5.3
2022-11-30T23:03:13.190Z,5.2
2022-11-30T23:23:14.004Z,5.2
2022-11-30T23:33:14.872Z,5.2
2022-11-30T23:43:15.156Z,5.3
2022-11-30T23:53:16.055Z,5.3
